createdAt,value
2023-03-15T00:02:05.747Z,1.30
2023-03-15T00:04:34.408Z,2.58
2023-03-15T00:07:01.676Z,1.40
2023-03-15T00:09:29.013Z,2.05
2023-03-15T00:11:56.292Z,2.58
2023-03-15T00:14:23.703Z,1.65
2023-03-15T00:16:51.171Z,1.77
2023-03-15T00:19:18.510Z,1.80
2023-03-15T00:21:45.747Z,1.88
2023-03-15T00:24:13.124Z,1.67
2023-03-15T00:26:40.957Z,1.60
2023-03-15T00:29:09.356Z,1.75
2023-03-15T00:31:36.899Z,1.42
2023-03-15T00:34:04.147Z,2.33
2023-03-15T00:36:32.475Z,1.55
2023-03-15T00:39:00.010Z,1.63
2023-03-15T00:41:27.685Z,1.63
2023-03-15T00:43:54.901Z,2.05
2023-03-15T00:46:22.272Z,1.73
2023-03-15T00:48:51.389Z,1.90
2023-03-15T00:51:21.598Z,1.10
2023-03-15T00:53:50.761Z,1.90
2023-03-15T00:56:23.709Z,1.30
2023-03-15T00:58:54.908Z,1.30
2023-03-15T01:01:28.910Z,1.42
2023-03-15T01:03:57.374Z,1.30
2023-03-15T01:06:28.790Z,2.42
2023-03-15T01:08:57.687Z,2.38
2023-03-15T01:11:28.012Z,1.45
2023-03-15T01:13:57.433Z,1.73
2023-03-15T01:16:26.260Z,1.40
2023-03-15T01:18:54.316Z,1.42
2023-03-15T01:21:23.750Z,1.27
2023-03-15T01:23:51.164Z,1.20
2023-03-15T01:26:22.652Z,1.50
2023-03-15T01:28:50.035Z,1.65
2023-03-15T01:31:29.195Z,1.52
2023-03-15T01:33:58.062Z,1.55
2023-03-15T01:36:27.613Z,1.80
2023-03-15T01:38:55.839Z,1.67
2023-03-15T01:41:28.390Z,1.20
2023-03-15T01:43:55.757Z,1.45
2023-03-15T01:46:29.767Z,2.17
2023-03-15T01:49:08.419Z,1.60
2023-03-15T01:51:53.021Z,1.92
2023-03-15T01:54:27.853Z,1.95
2023-03-15T01:57:09.047Z,1.80
2023-03-15T01:59:40.694Z,2.28
2023-03-15T02:02:09.744Z,1.80
2023-03-15T02:04:49.535Z,1.83
2023-03-15T02:07:22.538Z,1.80
2023-03-15T02:10:03.617Z,1.30
2023-03-15T02:12:38.612Z,1.48
2023-03-15T02:15:07.674Z,1.75
2023-03-15T02:17:42.042Z,1.50
2023-03-15T02:20:18.914Z,1.50
2023-03-15T02:23:17.404Z,1.23
2023-03-15T02:25:50.733Z,1.50
2023-03-15T02:28:19.856Z,1.92
2023-03-15T02:30:48.460Z,1.48
2023-03-15T02:33:35.635Z,1.67
2023-03-15T02:36:12.190Z,1.73
2023-03-15T02:38:39.438Z,1.90
2023-03-15T02:41:07.272Z,1.83
2023-03-15T02:43:35.607Z,1.80
2023-03-15T02:46:04.242Z,1.58
2023-03-15T02:48:33.674Z,1.63
2023-03-15T02:51:03.229Z,1.90
2023-03-15T02:53:31.750Z,2.50
2023-03-15T02:56:01.181Z,2.00
2023-03-15T02:58:28.996Z,2.50
2023-03-15T03:00:57.655Z,1.63
2023-03-15T03:03:25.078Z,2.38
2023-03-15T03:05:52.735Z,1.77
2023-03-15T03:08:21.021Z,2.08
2023-03-15T03:10:48.416Z,2.05
2023-03-15T03:13:15.803Z,2.33
2023-03-15T03:15:45.497Z,2.15
2023-03-15T03:18:14.820Z,1.77
2023-03-15T03:20:46.148Z,2.58
2023-03-15T03:23:13.842Z,1.92
2023-03-15T03:25:43.050Z,2.15
2023-03-15T03:28:10.368Z,2.47
2023-03-15T03:30:37.649Z,3.17
2023-03-15T03:33:04.981Z,2.92
2023-03-15T03:35:32.841Z,2.00
2023-03-15T03:38:00.647Z,2.47
2023-03-15T03:40:34.121Z,2.53
2023-03-15T03:43:01.466Z,2.17
2023-03-15T03:45:29.881Z,2.78
2023-03-15T03:47:59.615Z,2.13
2023-03-15T03:50:27.434Z,1.88
2023-03-15T03:52:55.184Z,1.90
2023-03-15T03:55:27.036Z,2.50
2023-03-15T03:57:54.711Z,2.80
2023-03-15T04:00:41.973Z,1.42
2023-03-15T04:03:10.803Z,2.42
2023-03-15T04:05:42.014Z,1.60
2023-03-15T04:08:09.685Z,1.67
2023-03-15T04:10:39.998Z,1.80
2023-03-15T04:13:08.028Z,1.67
2023-03-15T04:15:35.723Z,1.73
2023-03-15T04:18:05.902Z,2.08
2023-03-15T04:20:39.718Z,1.60
2023-03-15T04:23:07.491Z,2.08
2023-03-15T04:25:42.093Z,1.60
2023-03-15T04:28:18.923Z,1.77
2023-03-15T04:30:58.999Z,1.50
2023-03-15T04:33:54.615Z,1.90
2023-03-15T04:36:46.821Z,2.03
2023-03-15T04:39:28.142Z,2.45
2023-03-15T04:42:14.105Z,2.47
2023-03-15T04:44:53.939Z,1.67
2023-03-15T04:47:37.896Z,1.42
2023-03-15T04:50:31.226Z,1.58
2023-03-15T04:53:18.858Z,1.20
2023-03-15T04:55:53.190Z,1.42
2023-03-15T04:58:35.738Z,1.23
2023-03-15T05:01:11.787Z,1.15
2023-03-15T05:03:51.528Z,1.13
2023-03-15T05:06:45.363Z,1.00
2023-03-15T05:09:39.810Z,0.98
2023-03-15T05:12:36.418Z,1.35
2023-03-15T05:15:13.232Z,0.82
2023-03-15T05:17:55.121Z,1.30
2023-03-15T05:20:45.846Z,0.93
2023-03-15T05:23:39.378Z,0.98
2023-03-15T05:26:06.640Z,1.02
2023-03-15T05:28:59.692Z,1.10
2023-03-15T05:31:52.879Z,1.15
2023-03-15T05:34:43.388Z,1.20
2023-03-15T05:37:30.321Z,1.10
2023-03-15T05:40:21.792Z,1.45
2023-03-15T05:43:01.055Z,2.10
2023-03-15T05:45:51.621Z,1.58
2023-03-15T05:48:32.862Z,1.50
2023-03-15T05:51:26.277Z,1.33
2023-03-15T05:54:08.751Z,2.20
2023-03-15T05:56:56.450Z,2.38
2023-03-15T05:59:53.659Z,2.05
2023-03-15T06:02:39.659Z,1.73
2023-03-15T06:05:27.377Z,1.65
2023-03-15T06:07:56.724Z,1.73
2023-03-15T06:10:24.421Z,1.67
2023-03-15T06:12:53.338Z,1.60
2023-03-15T06:15:21.218Z,2.00
2023-03-15T06:17:49.666Z,2.67
2023-03-15T06:20:18.367Z,2.10
2023-03-15T06:22:45.819Z,1.80
2023-03-15T06:25:27.724Z,1.70
2023-03-15T06:27:55.296Z,1.73
2023-03-15T06:30:24.556Z,2.03
2023-03-15T06:32:56.075Z,1.35
2023-03-15T06:35:23.560Z,1.20
2023-03-15T06:37:53.343Z,1.50
2023-03-15T06:40:20.703Z,1.70
2023-03-15T06:42:49.748Z,1.58
2023-03-15T06:45:19.521Z,1.90
2023-03-15T06:47:47.686Z,1.65
2023-03-15T06:50:16.611Z,1.70
2023-03-15T06:52:43.865Z,1.60
2023-03-15T06:55:12.603Z,1.67
2023-03-15T06:57:44.641Z,1.50
2023-03-15T07:00:13.080Z,1.20
2023-03-15T07:02:40.946Z,1.65
2023-03-15T07:05:09.372Z,1.63
2023-03-15T07:07:36.684Z,2.22
2023-03-15T07:10:04.346Z,1.67
2023-03-15T07:12:32.012Z,2.00
2023-03-15T07:14:59.286Z,1.85
2023-03-15T07:17:26.952Z,1.83
2023-03-15T07:19:56.848Z,1.52
2023-03-15T07:22:24.812Z,2.13
2023-03-15T07:24:52.331Z,1.42
2023-03-15T07:27:19.801Z,1.65
2023-03-15T07:29:49.319Z,1.67
2023-03-15T07:32:16.817Z,1.92
2023-03-15T07:34:45.517Z,1.88
2023-03-15T07:37:13.016Z,1.58
2023-03-15T07:39:41.316Z,1.75
2023-03-15T07:42:08.923Z,1.77
2023-03-15T07:44:43.466Z,1.60
2023-03-15T07:47:11.067Z,2.28
2023-03-15T07:49:38.371Z,2.78
2023-03-15T07:52:05.742Z,1.95
2023-03-15T07:54:34.359Z,1.98
2023-03-15T07:57:01.982Z,2.05
2023-03-15T07:59:29.490Z,1.70
2023-03-15T08:01:57.103Z,2.08
2023-03-15T08:04:25.985Z,2.10
2023-03-15T08:06:53.490Z,2.33
2023-03-15T08:09:20.781Z,1.80
2023-03-15T08:11:48.615Z,2.20
2023-03-15T08:14:15.909Z,2.88
2023-03-15T08:16:43.476Z,2.08
2023-03-15T08:19:10.867Z,1.88
2023-03-15T08:21:38.117Z,2.20
2023-03-15T08:24:05.689Z,2.20
2023-03-15T08:26:33.187Z,1.50
2023-03-15T08:29:00.729Z,1.85
2023-03-15T08:31:28.054Z,2.15
2023-03-15T08:33:55.356Z,3.13
2023-03-15T08:36:22.668Z,1.80
2023-03-15T08:38:50.012Z,2.67
2023-03-15T08:41:17.301Z,1.73
2023-03-15T08:43:44.632Z,2.85
2023-03-15T08:46:12.905Z,2.03
2023-03-15T08:48:40.219Z,1.63
2023-03-15T08:51:09.198Z,2.25
2023-03-15T08:53:37.752Z,2.25
2023-03-15T08:56:05.411Z,1.75
2023-03-15T08:58:33.040Z,3.03
2023-03-15T09:01:00.297Z,1.98
2023-03-15T09:03:28.084Z,1.70
2023-03-15T09:05:59.664Z,2.00
2023-03-15T09:08:27.718Z,1.85
2023-03-15T09:10:56.851Z,1.73
2023-03-15T09:13:25.145Z,2.03
2023-03-15T09:15:53.489Z,1.50
2023-03-15T09:18:21.293Z,1.70
2023-03-15T09:20:51.831Z,2.10
2023-03-15T09:23:19.386Z,1.73
2023-03-15T09:25:46.657Z,1.50
2023-03-15T09:28:14.612Z,2.00
2023-03-15T09:30:43.518Z,2.30
2023-03-15T09:33:14.692Z,1.70
2023-03-15T09:35:42.628Z,1.58
2023-03-15T09:38:10.392Z,2.63
2023-03-15T09:40:45.370Z,1.33
2023-03-15T09:43:21.885Z,2.53
2023-03-15T09:46:07.583Z,1.52
2023-03-15T09:48:38.074Z,1.63
2023-03-15T09:51:08.230Z,2.38
2023-03-15T09:54:08.002Z,1.52
2023-03-15T09:56:41.679Z,1.70
2023-03-15T09:59:10.619Z,2.03
2023-03-15T10:01:42.479Z,1.67
2023-03-15T10:04:16.867Z,1.38
2023-03-15T10:06:52.092Z,2.22
2023-03-15T10:09:23.461Z,2.08
2023-03-15T10:12:10.613Z,1.83
2023-03-15T10:14:39.345Z,1.77
2023-03-15T10:17:12.388Z,1.50
2023-03-15T10:19:51.312Z,1.38
2023-03-15T10:22:29.873Z,1.60
2023-03-15T10:25:02.067Z,1.45
2023-03-15T10:27:39.216Z,1.83
2023-03-15T10:30:17.561Z,1.80
2023-03-15T10:32:49.525Z,1.52
2023-03-15T10:35:19.681Z,1.80
2023-03-15T10:37:49.745Z,2.78
2023-03-15T10:40:39.981Z,1.80
2023-03-15T10:43:29.883Z,1.75
2023-03-15T10:46:22.206Z,2.00
2023-03-15T10:49:01.011Z,1.70
2023-03-15T10:51:31.987Z,1.80
2023-03-15T10:54:07.126Z,1.27
2023-03-15T10:56:43.730Z,1.45
2023-03-15T10:59:26.625Z,2.17
2023-03-15T11:02:15.392Z,1.70
2023-03-15T11:04:44.622Z,2.28
2023-03-15T11:07:13.528Z,1.90
2023-03-15T11:09:42.056Z,1.52
2023-03-15T11:12:34.069Z,1.67
2023-03-15T11:15:14.493Z,1.63
2023-03-15T11:17:44.807Z,1.45
2023-03-15T11:20:34.429Z,2.15
2023-03-15T11:23:15.960Z,1.50
2023-03-15T11:25:43.246Z,1.80
2023-03-15T11:28:20.018Z,1.27
2023-03-15T11:30:48.672Z,1.42
2023-03-15T11:33:45.464Z,1.65
2023-03-15T11:36:19.115Z,1.55
2023-03-15T11:38:47.506Z,1.77
2023-03-15T11:41:29.960Z,1.63
2023-03-15T11:44:33.399Z,2.35
2023-03-15T11:47:32.151Z,2.03
2023-03-15T11:50:00.057Z,1.60
2023-03-15T11:52:29.322Z,2.15
2023-03-15T11:55:02.139Z,1.85
2023-03-15T11:57:37.410Z,1.33
2023-03-15T12:00:22.408Z,1.67
2023-03-15T12:03:00.108Z,1.58
2023-03-15T12:05:49.280Z,1.65
2023-03-15T12:08:34.565Z,1.65
2023-03-15T12:11:02.538Z,1.58
2023-03-15T12:13:32.503Z,1.65
2023-03-15T12:15:59.880Z,1.50
2023-03-15T12:18:32.669Z,1.00
2023-03-15T12:21:14.572Z,1.52
2023-03-15T12:24:15.705Z,1.20
2023-03-15T12:26:43.128Z,1.00
2023-03-15T12:29:15.885Z,1.10
2023-03-15T12:31:56.509Z,1.17
2023-03-15T12:34:51.749Z,1.48
2023-03-15T12:37:19.010Z,1.23
2023-03-15T12:40:01.741Z,1.15
2023-03-15T12:42:31.968Z,1.50
2023-03-15T12:45:19.150Z,1.67
2023-03-15T12:47:52.579Z,1.40
2023-03-15T12:50:44.517Z,1.33
2023-03-15T12:53:40.122Z,1.30
2023-03-15T12:56:46.263Z,1.90
2023-03-15T12:59:20.687Z,2.38
2023-03-15T13:01:48.858Z,1.55
2023-03-15T13:04:18.954Z,1.70
2023-03-15T13:06:58.084Z,2.15
2023-03-15T13:09:32.098Z,1.38
2023-03-15T13:12:27.164Z,1.40
2023-03-15T13:14:54.940Z,1.30
2023-03-15T13:17:44.184Z,1.10
2023-03-15T13:20:23.368Z,1.20
2023-03-15T13:22:59.949Z,1.48
2023-03-15T13:25:35.720Z,1.77
2023-03-15T13:28:16.267Z,2.15
2023-03-15T13:30:52.517Z,2.08
2023-03-15T13:33:28.603Z,1.38
2023-03-15T13:36:03.768Z,1.23
2023-03-15T13:38:37.224Z,1.55
2023-03-15T13:41:06.528Z,1.45
2023-03-15T13:43:37.106Z,1.10
2023-03-15T13:46:05.670Z,1.13
2023-03-15T13:48:36.078Z,1.60
2023-03-15T13:51:10.466Z,1.48
2023-03-15T13:53:49.437Z,1.65
2023-03-15T13:56:21.120Z,1.25
2023-03-15T13:58:50.051Z,1.88
2023-03-15T14:01:17.950Z,1.30
2023-03-15T14:03:52.473Z,1.48
2023-03-15T14:06:25.929Z,1.73
2023-03-15T14:09:00.013Z,1.17
2023-03-15T14:11:40.647Z,1.60
2023-03-15T14:14:23.177Z,1.25
2023-03-15T14:17:04.294Z,1.88
2023-03-15T14:19:35.151Z,1.20
2023-03-15T14:22:12.619Z,1.10
2023-03-15T14:24:42.041Z,1.55
2023-03-15T14:27:14.949Z,1.10
2023-03-15T14:29:51.663Z,1.27
2023-03-15T14:32:32.413Z,1.60
2023-03-15T14:37:39.188Z,1.30
2023-03-15T14:40:15.955Z,1.40
2023-03-15T14:42:44.958Z,1.58
2023-03-15T14:45:12.572Z,1.25
2023-03-15T14:47:56.112Z,2.03
2023-03-15T14:50:27.416Z,1.48
2023-03-15T14:52:57.417Z,1.65
2023-03-15T14:55:29.799Z,1.80
2023-03-15T14:57:57.031Z,1.58
2023-03-15T15:00:24.902Z,1.50
2023-03-15T15:02:55.329Z,1.27
2023-03-15T15:05:42.032Z,1.35
2023-03-15T15:08:15.759Z,1.40
2023-03-15T15:10:45.593Z,1.58
2023-03-15T15:13:23.127Z,1.38
2023-03-15T15:15:56.796Z,1.30
2023-03-15T15:18:26.576Z,1.45
2023-03-15T15:20:56.347Z,1.73
2023-03-15T15:23:29.346Z,1.40
2023-03-15T15:26:05.966Z,1.67
2023-03-15T15:28:37.371Z,1.27
2023-03-15T15:31:08.265Z,1.30
2023-03-15T15:33:35.858Z,1.88
2023-03-15T15:36:04.990Z,1.85
2023-03-15T15:38:38.720Z,1.48
2023-03-15T15:41:13.052Z,1.67
2023-03-15T15:43:41.269Z,1.60
2023-03-15T15:46:13.298Z,1.30
2023-03-15T15:48:41.886Z,1.25
2023-03-15T15:51:20.192Z,1.15
2023-03-15T15:53:47.811Z,2.00
2023-03-15T15:56:16.077Z,1.52
2023-03-15T15:58:44.774Z,1.30
2023-03-15T16:01:16.215Z,1.33
2023-03-15T16:03:45.754Z,1.48
2023-03-15T16:06:22.714Z,1.60
2023-03-15T16:08:52.178Z,1.15
2023-03-15T16:11:20.834Z,1.13
2023-03-15T16:13:51.972Z,1.25
2023-03-15T16:16:20.486Z,1.52
2023-03-15T16:18:47.913Z,1.23
2023-03-15T16:21:41.822Z,1.42
2023-03-15T16:24:23.688Z,1.13
2023-03-15T16:26:53.564Z,1.25
2023-03-15T16:29:27.340Z,1.63
2023-03-15T16:31:59.152Z,2.17
2023-03-15T16:34:28.490Z,1.52
2023-03-15T16:36:55.859Z,1.45
2023-03-15T16:39:23.460Z,1.40
2023-03-15T16:41:52.187Z,1.48
2023-03-15T16:44:21.703Z,1.90
2023-03-15T16:46:49.297Z,2.35
2023-03-15T16:49:16.667Z,1.52
2023-03-15T16:51:47.945Z,1.48
2023-03-15T16:54:27.340Z,1.60
2023-03-15T16:57:01.385Z,1.70
2023-03-15T16:59:29.128Z,2.50
2023-03-15T17:01:56.550Z,1.23
2023-03-15T17:04:24.652Z,1.67
2023-03-15T17:06:52.265Z,2.50
2023-03-15T17:09:22.796Z,1.88
2023-03-15T17:11:52.309Z,2.03
2023-03-15T17:14:26.899Z,1.88
2023-03-15T17:16:54.386Z,1.80
2023-03-15T17:19:22.636Z,1.98
2023-03-15T17:21:51.777Z,1.73
2023-03-15T17:24:19.458Z,1.17
2023-03-15T17:26:46.929Z,1.98
2023-03-15T17:29:17.010Z,2.85
2023-03-15T17:31:47.801Z,1.38
2023-03-15T17:34:15.249Z,1.77
2023-03-15T17:36:42.729Z,2.05
2023-03-15T17:39:17.195Z,1.27
2023-03-15T17:41:47.188Z,1.63
2023-03-15T17:44:14.836Z,1.80
2023-03-15T17:46:43.200Z,1.17
2023-03-15T17:49:13.459Z,1.58
2023-03-15T17:51:41.498Z,1.50
2023-03-15T17:54:17.829Z,1.55
2023-03-15T17:56:50.266Z,1.35
2023-03-15T17:59:17.948Z,1.35
2023-03-15T18:01:48.882Z,2.00
2023-03-15T18:04:17.196Z,1.85
2023-03-15T18:06:50.271Z,1.75
2023-03-15T18:09:18.733Z,2.42
2023-03-15T18:11:46.966Z,1.80
2023-03-15T18:14:16.720Z,1.25
2023-03-15T18:16:45.671Z,1.65
2023-03-15T18:19:13.784Z,2.30
2023-03-15T18:21:41.987Z,2.50
2023-03-15T18:24:12.585Z,1.80
2023-03-15T18:26:40.401Z,1.80
2023-03-15T18:29:07.803Z,1.80
2023-03-15T18:31:35.620Z,1.80
2023-03-15T18:34:03.729Z,1.83
2023-03-15T18:36:31.720Z,2.10
2023-03-15T18:38:59.168Z,2.20
2023-03-15T18:41:26.929Z,2.03
2023-03-15T18:43:54.363Z,1.73
2023-03-15T18:46:26.266Z,1.67
2023-03-15T18:48:54.153Z,1.63
2023-03-15T18:51:23.182Z,1.80
2023-03-15T18:53:50.842Z,1.42
2023-03-15T18:56:21.792Z,1.58
2023-03-15T18:58:50.906Z,1.83
2023-03-15T19:01:22.567Z,1.70
2023-03-15T19:03:51.515Z,1.48
2023-03-15T19:06:19.962Z,1.45
2023-03-15T19:08:53.508Z,1.67
2023-03-15T19:11:24.045Z,1.80
2023-03-15T19:13:51.978Z,2.10
2023-03-15T19:16:20.978Z,2.10
2023-03-15T19:18:49.858Z,2.35
2023-03-15T19:21:18.915Z,2.53
2023-03-15T19:23:46.953Z,1.95
2023-03-15T19:26:14.569Z,1.95
2023-03-15T19:28:42.125Z,2.15
2023-03-15T19:31:10.377Z,3.05
2023-03-15T19:33:38.815Z,1.77
2023-03-15T19:36:06.540Z,1.90
2023-03-15T19:38:34.087Z,2.28
2023-03-15T19:41:11.376Z,1.50
2023-03-15T19:43:43.133Z,1.70
2023-03-15T19:48:42.666Z,2.28
2023-03-15T19:51:09.941Z,2.40
2023-03-15T19:53:37.204Z,2.70
2023-03-15T19:56:08.166Z,2.33
2023-03-15T19:58:35.600Z,2.03
2023-03-15T20:01:03.152Z,2.13
2023-03-15T20:03:35.675Z,2.15
2023-03-15T20:06:14.530Z,2.30
2023-03-15T20:08:42.152Z,2.75
2023-03-15T20:11:15.279Z,2.83
2023-03-15T20:13:42.820Z,2.22
2023-03-15T20:16:10.200Z,2.25
2023-03-15T20:18:37.765Z,2.85
2023-03-15T20:21:05.616Z,2.88
2023-03-15T20:23:33.488Z,2.38
2023-03-15T20:26:12.026Z,2.15
2023-03-15T20:28:40.439Z,2.05
2023-03-15T20:31:09.802Z,2.80
2023-03-15T20:33:37.178Z,2.70
2023-03-15T20:36:05.678Z,2.97
2023-03-15T20:38:34.481Z,2.80
2023-03-15T20:41:01.728Z,2.47
2023-03-15T20:43:29.424Z,2.80
2023-03-15T20:45:59.776Z,2.80
2023-03-15T20:48:29.069Z,3.28
2023-03-15T20:51:04.223Z,3.00
2023-03-15T20:53:34.407Z,2.72
2023-03-15T20:56:03.243Z,3.15
2023-03-15T20:58:31.758Z,3.55
2023-03-15T21:01:09.142Z,3.42
2023-03-15T21:03:37.758Z,3.08
2023-03-15T21:06:06.882Z,3.53
2023-03-15T21:08:35.702Z,3.60
2023-03-15T21:11:06.237Z,3.60
2023-03-15T21:13:35.407Z,3.58
2023-03-15T21:16:05.218Z,3.85
2023-03-15T21:18:38.690Z,4.28
2023-03-15T21:21:08.267Z,3.83
2023-03-15T21:23:39.034Z,3.47
2023-03-15T21:26:10.183Z,3.53
2023-03-15T21:28:39.348Z,3.90
2023-03-15T21:31:08.683Z,3.15
2023-03-15T21:33:36.496Z,3.45
2023-03-15T21:36:04.941Z,2.97
2023-03-15T21:38:34.364Z,3.25
2023-03-15T21:41:09.767Z,3.22
2023-03-15T21:43:38.561Z,3.10
2023-03-15T21:46:09.267Z,3.10
2023-03-15T21:48:37.708Z,3.17
2023-03-15T21:51:06.030Z,2.95
2023-03-15T21:53:34.757Z,2.53
2023-03-15T21:56:03.843Z,2.90
2023-03-15T21:58:31.802Z,2.60
2023-03-15T22:01:01.371Z,2.75
2023-03-15T22:03:29.844Z,2.65
2023-03-15T22:05:58.009Z,2.72
2023-03-15T22:08:26.515Z,3.15
2023-03-15T22:10:55.560Z,2.47
2023-03-15T22:13:23.532Z,2.63
2023-03-15T22:15:52.424Z,3.17
2023-03-15T22:18:20.846Z,2.72
2023-03-15T22:20:51.881Z,2.55
2023-03-15T22:23:19.497Z,3.03
2023-03-15T22:25:50.162Z,2.80
2023-03-15T22:28:18.024Z,2.63
2023-03-15T22:30:54.995Z,2.60
2023-03-15T22:33:23.046Z,3.03
2023-03-15T22:35:58.642Z,3.63
2023-03-15T22:38:28.086Z,2.58
2023-03-15T22:41:04.227Z,3.22
2023-03-15T22:43:31.769Z,2.80
2023-03-15T22:45:59.392Z,2.60
2023-03-15T22:48:27.173Z,2.60
2023-03-15T22:51:04.836Z,3.10
2023-03-15T22:53:33.323Z,2.97
2023-03-15T22:56:00.915Z,2.78
2023-03-15T22:58:28.322Z,2.90
2023-03-15T23:00:55.896Z,2.85
2023-03-15T23:03:23.690Z,3.13
2023-03-15T23:05:53.726Z,2.63
2023-03-15T23:08:21.255Z,2.00
2023-03-15T23:10:50.491Z,2.40
2023-03-15T23:13:18.069Z,2.80
2023-03-15T23:15:45.423Z,2.60
2023-03-15T23:18:14.771Z,2.60
2023-03-15T23:20:42.992Z,2.75
2023-03-15T23:23:10.414Z,2.45
2023-03-15T23:25:39.509Z,2.75
2023-03-15T23:28:08.015Z,2.67
2023-03-15T23:30:36.591Z,3.28
2023-03-15T23:33:04.292Z,2.45
2023-03-15T23:35:31.906Z,3.22
2023-03-15T23:37:59.303Z,2.80
2023-03-15T23:40:27.239Z,2.70
2023-03-15T23:42:59.365Z,2.47
2023-03-15T23:45:30.314Z,2.67
2023-03-15T23:47:58.620Z,2.85
2023-03-15T23:50:26.951Z,2.58
2023-03-15T23:52:56.409Z,2.60
2023-03-15T23:55:24.504Z,2.38
2023-03-15T23:57:51.774Z,2.60
